Terminal Aerodrome Forecast
Issued by NWS Charleston, WV

Current Version | Previous Version | Graphics & Text | Print | Product List | Glossary On
Versions: 1 2 3 4 5 6 7 8 9 10 11 12 13 14 15 16 17 18 19 20 21 22 23 24 25
765
FTUS41 KRLX 252345
TAFPKB
TAF
KPKB 252345Z 2600/2624 VRB03KT P6SM VCTS BKN040CB
     FM260500 00000KT 5SM BR VCTS BKN050CB
     FM260800 00000KT 2SM BR VCTS SCT001 BKN120CB
     FM260900 00000KT 1SM BR BKN001
     FM261300 00000KT 3SM BR BKN025
     FM261400 00000KT P6SM BKN040=

USA.gov is the U.S. government's official web portal to all federal, state and local government web resources and services.